Time;durP1;ratioP1;P1;durP2;ratioP2;P2;SDS_P1;SDS_P2;PMS_P1;PMS_P2;Temp;Humidity;BMP_temperature;BMP_pressure;BME280_temperature;BME280_humidity;BME280_pressure;Samples;Min_cycle;Max_cycle;Signal;HPM_P1;HPM_P2
2023/11/11 00:01:19;;;;;;;13.23;12.43;;;4.90;1.00;;;;;;4855175;29;20288;-40
2023/11/11 00:03:46;;;;;;;13.60;12.80;;;4.90;1.00;;;;;;4855024;29;20504;-40
2023/11/11 00:06:11;;;;;;;13.57;12.68;;;4.90;1.00;;;;;;4855848;29;20188;-40
2023/11/11 00:08:37;;;;;;;13.90;12.97;;;4.90;1.00;;;;;;4846327;29;20925;-40
2023/11/11 00:11:03;;;;;;;14.27;13.10;;;4.90;1.00;;;;;;4855595;29;20197;-40
2023/11/11 00:13:29;;;;;;;13.60;12.60;;;4.90;1.00;;;;;;4855334;29;20195;-40
2023/11/11 00:15:54;;;;;;;13.70;12.90;;;4.90;1.00;;;;;;4852398;29;20454;-41
2023/11/11 00:18:20;;;;;;;15.17;13.83;;;4.90;1.00;;;;;;4845437;29;20241;-40
2023/11/11 00:20:48;;;;;;;13.97;13.07;;;4.90;1.00;;;;;;4847740;29;20495;-40
2023/11/11 00:23:15;;;;;;;12.82;11.93;;;4.80;1.00;;;;;;4842237;29;20191;-42
2023/11/11 00:25:46;;;;;;;13.73;12.82;;;4.90;1.00;;;;;;4843821;29;20188;-40
2023/11/11 00:28:12;;;;;;;13.15;12.45;;;4.90;1.00;;;;;;4848628;29;20192;-40
2023/11/11 00:30:38;;;;;;;13.60;12.60;;;4.90;1.00;;;;;;4855861;29;20526;-39
2023/11/11 00:33:03;;;;;;;13.17;12.27;;;4.90;1.00;;;;;;4856687;29;20218;-40
2023/11/11 00:35:29;;;;;;;12.60;11.90;;;5.00;1.00;;;;;;4856944;29;20988;-44
2023/11/11 00:37:54;;;;;;;12.73;11.83;;;5.00;1.00;;;;;;4856499;29;20192;-40
2023/11/11 00:40:21;;;;;;;13.20;12.40;;;5.10;1.00;;;;;;4848077;29;20233;-40
2023/11/11 00:42:47;;;;;;;12.70;12.00;;;5.10;1.00;;;;;;4853231;29;20628;-40
2023/11/11 00:45:13;;;;;;;12.90;12.10;;;5.20;1.00;;;;;;4856711;29;20237;-40
2023/11/11 00:47:39;;;;;;;12.82;12.02;;;5.20;1.00;;;;;;4854761;29;20636;-40
2023/11/11 00:50:06;;;;;;;13.43;12.63;;;5.20;1.00;;;;;;4854273;29;20229;-40
2023/11/11 00:52:33;;;;;;;12.73;12.02;;;5.20;1.00;;;;;;4842805;29;20552;-40
2023/11/11 00:55:00;;;;;;;12.95;12.15;;;5.30;1.00;;;;;;4845566;29;20260;-40
2023/11/11 00:57:25;;;;;;;13.20;12.40;;;5.30;1.00;;;;;;4852708;29;20540;-40
2023/11/11 00:59:51;;;;;;;13.77;12.80;;;5.30;1.00;;;;;;4848188;29;20181;-40
2023/11/11 01:02:17;;;;;;;13.87;13.00;;;5.30;1.00;;;;;;4854023;29;20668;-41
2023/11/11 01:04:42;;;;;;;13.17;12.27;;;5.30;1.00;;;;;;4847333;29;20197;-41
2023/11/11 01:07:08;;;;;;;12.80;12.00;;;5.30;1.00;;;;;;4858754;29;20271;-39
2023/11/11 01:09:34;;;;;;;13.75;12.80;;;5.30;1.00;;;;;;4858817;29;20305;-40
2023/11/11 01:12:00;;;;;;;12.97;12.10;;;5.20;1.00;;;;;;4858772;29;20212;-39
2023/11/11 01:14:25;;;;;;;13.10;12.20;;;5.30;1.00;;;;;;4859623;29;20239;-40
2023/11/11 01:16:51;;;;;;;13.70;12.80;;;5.30;1.00;;;;;;4841732;29;20181;-40
2023/11/11 01:19:17;;;;;;;13.97;12.97;;;5.30;1.00;;;;;;4849560;29;20193;-41
2023/11/11 01:21:42;;;;;;;13.43;12.57;;;5.30;1.00;;;;;;4857886;29;20192;-40
2023/11/11 01:24:08;;;;;;;13.70;12.80;;;5.30;1.00;;;;;;4859331;29;20184;-39
2023/11/11 01:26:34;;;;;;;14.43;13.40;;;5.40;1.00;;;;;;4859491;29;20188;-40
2023/11/11 01:28:59;;;;;;;14.43;13.50;;;5.40;1.00;;;;;;4851942;29;20280;-39
2023/11/11 01:31:25;;;;;;;15.30;14.20;;;5.40;1.00;;;;;;4844067;29;20226;-41
2023/11/11 01:33:50;;;;;;;16.33;14.80;;;5.40;1.00;;;;;;4858741;29;20181;-40
2023/11/11 01:36:16;;;;;;;14.33;13.37;;;5.40;1.00;;;;;;4854186;29;20195;-41
2023/11/11 01:38:41;;;;;;;15.23;14.00;;;5.40;1.00;;;;;;4855965;29;20221;-40
2023/11/11 01:41:07;;;;;;;15.80;14.50;;;5.40;1.00;;;;;;4855965;29;20196;-40
2023/11/11 01:43:33;;;;;;;14.93;13.93;;;5.40;1.00;;;;;;4858359;29;20207;-45
2023/11/11 01:46:05;;;;;;;15.60;14.40;;;5.40;1.00;;;;;;4855470;29;20229;-44
2023/11/11 01:48:34;;;;;;;16.63;15.30;;;5.40;1.00;;;;;;4850828;29;20194;-40
2023/11/11 01:51:02;;;;;;;15.90;14.70;;;5.40;1.00;;;;;;4852801;29;20233;-41
2023/11/11 01:53:29;;;;;;;15.70;14.50;;;5.30;1.00;;;;;;4842680;29;20272;-41
2023/11/11 01:55:55;;;;;;;16.70;15.30;;;5.30;1.00;;;;;;4847496;29;20189;-41
2023/11/11 01:58:21;;;;;;;16.95;15.65;;;5.30;1.00;;;;;;4852206;29;20191;-42
2023/11/11 02:00:47;;;;;;;17.00;15.60;;;5.30;1.00;;;;;;4858514;29;20204;-40
2023/11/11 02:03:13;;;;;;;16.85;15.60;;;5.30;1.00;;;;;;4858640;29;20234;-39
2023/11/11 02:05:39;;;;;;;17.33;15.80;;;5.30;1.00;;;;;;4837144;29;20200;-40
2023/11/11 02:08:07;;;;;;;16.87;15.13;;;5.30;1.00;;;;;;4850930;29;20204;-39
2023/11/11 02:10:35;;;;;;;17.73;16.23;;;5.30;1.00;;;;;;4856801;29;20433;-39
2023/11/11 02:13:02;;;;;;;17.80;16.40;;;5.20;1.00;;;;;;4853715;29;21494;-40
2023/11/11 02:15:28;;;;;;;18.50;16.98;;;5.20;1.00;;;;;;4854359;29;20195;-40
2023/11/11 02:17:54;;;;;;;17.45;16.05;;;5.10;2.30;;;;;;4854996;29;20245;-40
2023/11/11 02:20:20;;;;;;;18.60;17.00;;;5.20;7.00;;;;;;4849834;29;20224;-42
2023/11/11 02:22:45;;;;;;;17.73;16.23;;;5.10;9.20;;;;;;4853610;29;20532;-39
2023/11/11 02:25:11;;;;;;;19.00;17.50;;;5.10;14.20;;;;;;4856763;29;21324;-39
2023/11/11 02:27:37;;;;;;;18.90;17.37;;;5.10;15.70;;;;;;4857687;29;20189;-40
2023/11/11 02:30:03;;;;;;;19.77;18.07;;;5.10;17.90;;;;;;4856683;29;20198;-40
2023/11/11 02:32:31;;;;;;;17.75;16.35;;;5.10;22.10;;;;;;4856861;29;20553;-39
2023/11/11 02:34:57;;;;;;;19.83;18.13;;;5.20;22.00;;;;;;4853775;29;20196;-40
2023/11/11 02:37:23;;;;;;;18.55;16.85;;;5.20;26.40;;;;;;4855929;29;20196;-39
2023/11/11 02:39:48;;;;;;;19.03;17.40;;;5.30;26.20;;;;;;4848045;29;20193;-39
2023/11/11 02:42:14;;;;;;;19.10;17.40;;;5.30;25.00;;;;;;4850436;29;20922;-40
2023/11/11 02:44:40;;;;;;;17.70;16.30;;;5.30;23.10;;;;;;4853709;29;20208;-40
2023/11/11 02:47:05;;;;;;;17.77;16.27;;;5.30;21.70;;;;;;4839746;29;20193;-40
2023/11/11 02:49:31;;;;;;;18.03;16.43;;;5.30;22.10;;;;;;4852414;29;20200;-40
2023/11/11 02:51:57;;;;;;;18.73;16.93;;;5.30;21.30;;;;;;4853121;29;20815;-40
2023/11/11 02:54:22;;;;;;;19.80;18.00;;;5.30;22.60;;;;;;4856212;29;20441;-40
2023/11/11 02:56:48;;;;;;;19.00;17.30;;;5.30;23.70;;;;;;4851987;29;20192;-46
2023/11/11 02:59:14;;;;;;;21.50;19.50;;;5.40;23.00;;;;;;4841972;29;20567;-40
2023/11/11 03:01:41;;;;;;;18.80;17.30;;;5.30;22.60;;;;;;4851797;29;20505;-52
2023/11/11 03:04:07;;;;;;;21.45;17.40;;;5.40;23.50;;;;;;4856146;29;20530;-51
2023/11/11 03:06:33;;;;;;;20.80;18.80;;;5.40;24.30;;;;;;4853408;29;20199;-53
2023/11/11 03:08:59;;;;;;;19.73;17.75;;;5.40;21.50;;;;;;4856550;29;20188;-54
2023/11/11 03:11:25;;;;;;;19.85;18.15;;;5.40;18.30;;;;;;4857290;29;20204;-50
2023/11/11 03:13:51;;;;;;;20.80;18.63;;;5.40;14.20;;;;;;4857566;29;20173;-50
2023/11/11 03:16:17;;;;;;;20.08;18.08;;;5.40;10.80;;;;;;4854153;29;20547;-53
2023/11/11 03:18:45;;;;;;;20.70;18.60;;;5.40;8.10;;;;;;4847212;29;20267;-49
2023/11/11 03:21:23;;;;;;;21.08;19.10;;;5.40;4.50;;;;;;4850221;29;20269;-51
2023/11/11 03:23:48;;;;;;;21.38;19.40;;;5.30;5.70;;;;;;4857445;29;20240;-51
2023/11/11 03:26:14;;;;;;;19.67;17.90;;;5.40;4.90;;;;;;4849780;29;20643;-53
2023/11/11 03:28:39;;;;;;;20.10;18.30;;;5.40;6.60;;;;;;4850498;29;20496;-54
2023/11/11 03:31:05;;;;;;;21.30;19.20;;;5.30;6.50;;;;;;4844793;29;20275;-50
2023/11/11 03:33:31;;;;;;;21.43;19.27;;;5.30;7.70;;;;;;4838753;29;20177;-48
2023/11/11 03:35:57;;;;;;;20.13;18.27;;;5.30;12.60;;;;;;4853912;29;20420;-54
2023/11/11 03:38:22;;;;;;;21.27;19.20;;;5.30;15.60;;;;;;4857405;29;20184;-52
2023/11/11 03:40:48;;;;;;;20.93;18.73;;;5.30;14.00;;;;;;4852925;29;20174;-51
2023/11/11 03:43:13;;;;;;;21.40;19.23;;;5.30;15.40;;;;;;4838744;29;20173;-52
2023/11/11 03:45:39;;;;;;;21.57;19.37;;;5.20;17.40;;;;;;4841110;29;20209;-53
2023/11/11 03:48:05;;;;;;;21.60;19.50;;;5.20;21.50;;;;;;4854259;29;20270;-51
2023/11/11 03:50:30;;;;;;;20.57;18.63;;;5.20;22.60;;;;;;4840934;29;20703;-53
2023/11/11 03:52:56;;;;;;;20.97;18.70;;;5.30;26.80;;;;;;4838307;29;20205;-53
2023/11/11 03:55:21;;;;;;;21.67;19.47;;;5.30;28.50;;;;;;4838724;29;20170;-53
2023/11/11 03:57:47;;;;;;;20.37;18.47;;;5.30;28.70;;;;;;4837748;29;20188;-50
2023/11/11 04:00:17;;;;;;;21.40;19.33;;;5.30;26.80;;;;;;4848432;29;20190;-53
2023/11/11 04:02:43;;;;;;;20.77;18.77;;;5.30;24.70;;;;;;4856868;29;20192;-52
2023/11/11 04:05:11;;;;;;;20.87;18.77;;;5.30;25.10;;;;;;4846658;29;20193;-54
2023/11/11 04:07:38;;;;;;;21.05;19.08;;;5.30;26.30;;;;;;4853242;29;20779;-50
2023/11/11 04:10:04;;;;;;;20.88;18.95;;;5.30;26.70;;;;;;4857247;29;20172;-55
2023/11/11 04:12:30;;;;;;;20.52;18.63;;;5.30;26.20;;;;;;4843516;29;20567;-53
2023/11/11 04:14:56;;;;;;;20.50;18.60;;;5.30;24.40;;;;;;4838618;29;20186;-52
2023/11/11 04:17:22;;;;;;;21.60;19.30;;;5.30;23.60;;;;;;4850225;29;20197;-54
2023/11/11 04:19:47;;;;;;;20.85;18.88;;;5.30;22.90;;;;;;4852288;29;20177;-55
2023/11/11 04:22:14;;;;;;;19.40;17.60;;;5.30;23.60;;;;;;4827535;29;20668;-53
2023/11/11 04:24:40;;;;;;;20.70;18.75;;;5.40;21.40;;;;;;4838553;29;20186;-50
2023/11/11 04:27:06;;;;;;;19.75;17.95;;;5.40;21.20;;;;;;4846494;29;20195;-49
2023/11/11 04:29:32;;;;;;;21.40;19.20;;;5.40;20.90;;;;;;4850776;29;20197;-50
2023/11/11 04:31:58;;;;;;;20.50;18.60;;;5.40;18.40;;;;;;4851506;29;20529;-50
2023/11/11 04:34:26;;;;;;;19.65;17.85;;;5.40;18.40;;;;;;4826302;29;20949;-53
2023/11/11 04:36:52;;;;;;;20.40;18.60;;;5.40;17.20;;;;;;4847052;29;20917;-51
2023/11/11 04:39:18;;;;;;;20.80;18.60;;;5.40;18.10;;;;;;4838839;29;20233;-52
2023/11/11 04:41:44;;;;;;;18.65;16.90;;;5.40;19.50;;;;;;4841438;29;20189;-53
2023/11/11 04:44:10;;;;;;;18.60;16.80;;;5.40;19.50;;;;;;4841836;29;20173;-52
2023/11/11 04:46:37;;;;;;;20.05;18.20;;;5.40;20.80;;;;;;4858233;29;20199;-53
2023/11/11 04:49:02;;;;;;;19.05;17.15;;;5.40;20.80;;;;;;4842431;29;20299;-51
2023/11/11 04:51:28;;;;;;;18.20;16.30;;;5.40;21.40;;;;;;4841620;29;20352;-51
2023/11/11 04:53:54;;;;;;;19.77;17.67;;;5.40;20.40;;;;;;4860021;29;20173;-53
2023/11/11 04:56:19;;;;;;;19.83;17.83;;;5.40;20.80;;;;;;4852095;29;20490;-53
2023/11/11 04:58:46;;;;;;;20.83;18.90;;;5.40;16.80;;;;;;4845124;29;20191;-51
2023/11/11 05:01:12;;;;;;;21.13;18.95;;;5.40;17.40;;;;;;4854497;29;20441;-49
2023/11/11 05:03:39;;;;;;;22.63;18.83;;;5.40;18.50;;;;;;4838861;29;20264;-54
2023/11/11 05:06:05;;;;;;;21.45;19.00;;;5.40;16.70;;;;;;4859596;29;20187;-49
2023/11/11 05:08:31;;;;;;;21.23;19.23;;;5.40;17.90;;;;;;4840471;29;20196;-51
2023/11/11 05:10:56;;;;;;;20.53;18.57;;;5.30;18.50;;;;;;4857212;29;21037;-51
2023/11/11 05:13:23;;;;;;;20.63;18.63;;;5.30;20.80;;;;;;4854139;29;20852;-50
2023/11/11 05:15:59;;;;;;;20.25;18.15;;;5.30;22.70;;;;;;4850036;29;20193;-51
2023/11/11 05:18:26;;;;;;;21.42;19.42;;;5.20;26.90;;;;;;4854340;29;20195;-51
2023/11/11 05:20:52;;;;;;;22.33;20.08;;;5.10;34.80;;;;;;4857144;29;20184;-52
2023/11/11 05:23:17;;;;;;;22.07;19.87;;;5.10;39.60;;;;;;4852992;29;20681;-51
2023/11/11 05:25:43;;;;;;;21.13;18.77;;;5.10;48.40;;;;;;4857817;29;20441;-52
2023/11/11 05:28:08;;;;;;;22.23;19.33;;;5.00;56.70;;;;;;4858284;29;20215;-51
2023/11/11 05:30:34;;;;;;;20.60;18.70;;;5.00;64.80;;;;;;4834994;29;20651;-52
2023/11/11 05:33:00;;;;;;;20.90;18.90;;;5.00;72.60;;;;;;4848802;29;20212;-53
2023/11/11 05:35:26;;;;;;;20.70;18.70;;;5.00;81.20;;;;;;4841045;29;20552;-49
2023/11/11 05:37:53;;;;;;;20.83;18.93;;;5.00;88.60;;;;;;4847027;29;20176;-53
2023/11/11 05:40:19;;;;;;;20.23;18.23;;;5.00;91.70;;;;;;4852364;29;20189;-52
2023/11/11 05:42:48;;;;;;;20.43;18.50;;;5.10;91.90;;;;;;4857768;29;20181;-53
2023/11/11 05:45:16;;;;;;;21.83;17.65;;;5.10;90.10;;;;;;4850305;29;20212;-53
2023/11/11 05:47:42;;;;;;;20.45;18.35;;;5.10;87.40;;;;;;4842828;29;21100;-53
2023/11/11 05:50:08;;;;;;;20.33;18.13;;;5.20;83.40;;;;;;4848803;29;20185;-52
2023/11/11 05:52:34;;;;;;;19.60;17.70;;;5.30;77.70;;;;;;4858460;29;20584;-52
2023/11/11 05:54:59;;;;;;;20.33;18.30;;;5.20;66.10;;;;;;4858741;29;20176;-49
2023/11/11 05:57:25;;;;;;;21.67;19.67;;;5.30;67.30;;;;;;4854829;29;20184;-49
2023/11/11 05:59:52;;;;;;;20.80;18.77;;;5.30;62.50;;;;;;4858252;29;20181;-51
2023/11/11 06:02:18;;;;;;;20.08;18.17;;;5.30;59.10;;;;;;4856905;29;20226;-54
2023/11/11 06:04:43;;;;;;;20.07;18.23;;;5.30;57.40;;;;;;4851784;29;20224;-52
2023/11/11 06:07:09;;;;;;;18.97;17.27;;;5.30;53.20;;;;;;4845441;29;20212;-47
2023/11/11 06:09:35;;;;;;;20.27;18.40;;;5.30;48.00;;;;;;4855805;29;20697;-54
2023/11/11 06:12:01;;;;;;;20.35;18.45;;;5.40;46.90;;;;;;4857565;29;20492;-51
2023/11/11 06:14:27;;;;;;;18.77;17.08;;;5.30;42.80;;;;;;4857311;29;20188;-54
2023/11/11 06:16:53;;;;;;;18.63;17.10;;;5.30;44.20;;;;;;4857847;29;20191;-51
2023/11/11 06:19:19;;;;;;;18.60;16.83;;;5.30;43.30;;;;;;4852726;29;20272;-49
2023/11/11 06:21:46;;;;;;;19.48;17.60;;;5.40;46.30;;;;;;4850098;29;20720;-45
2023/11/11 06:24:12;;;;;;;20.55;18.35;;;5.40;41.30;;;;;;4856385;29;20196;-48
2023/11/11 06:26:38;;;;;;;19.25;17.55;;;5.40;42.30;;;;;;4858115;29;20196;-49
2023/11/11 06:29:06;;;;;;;19.20;17.50;;;5.50;36.50;;;;;;4857325;29;20195;-52
2023/11/11 06:31:32;;;;;;;19.58;17.83;;;5.50;27.90;;;;;;4858209;29;20433;-51
2023/11/11 06:33:58;;;;;;;19.88;17.67;;;5.50;21.00;;;;;;4858214;29;20233;-51
2023/11/11 06:36:24;;;;;;;18.80;17.00;;;5.60;17.00;;;;;;4848933;29;20268;-49
2023/11/11 06:38:50;;;;;;;18.93;17.23;;;5.60;15.50;;;;;;4842640;29;20265;-54
2023/11/11 06:41:17;;;;;;;18.83;17.17;;;5.60;9.90;;;;;;4856839;29;20272;-51
2023/11/11 06:43:42;;;;;;;18.70;16.77;;;5.60;6.40;;;;;;4857179;29;20273;-53
2023/11/11 06:46:08;;;;;;;18.50;16.80;;;5.70;1.00;;;;;;4852338;29;20295;-52
2023/11/11 06:48:34;;;;;;;19.80;17.83;;;5.70;1.00;;;;;;4857309;29;20199;-51
2023/11/11 06:51:00;;;;;;;19.23;17.23;;;5.80;1.00;;;;;;4852009;29;20255;-49
2023/11/11 06:53:26;;;;;;;17.53;15.97;;;5.80;1.00;;;;;;4852901;29;20472;-51
2023/11/11 06:55:52;;;;;;;18.85;17.17;;;5.90;1.00;;;;;;4844064;29;20538;-51
2023/11/11 06:58:18;;;;;;;18.97;17.30;;;5.90;1.00;;;;;;4856016;29;20287;-52
2023/11/11 07:00:46;;;;;;;17.67;15.93;;;6.00;1.00;;;;;;4855175;29;20276;-51
2023/11/11 07:03:12;;;;;;;19.20;17.42;;;5.90;1.00;;;;;;4852519;29;20185;-50
2023/11/11 07:05:38;;;;;;;20.00;18.17;;;6.00;1.00;;;;;;4846941;29;20201;-49
2023/11/11 07:08:05;;;;;;;18.47;16.97;;;6.10;1.00;;;;;;4842238;29;20199;-52
2023/11/11 07:10:33;;;;;;;18.77;17.13;;;6.10;1.00;;;;;;4845423;29;20189;-48
2023/11/11 07:13:02;;;;;;;18.48;16.73;;;6.10;1.00;;;;;;4854167;29;20222;-52
2023/11/11 07:15:28;;;;;;;18.52;16.73;;;6.20;1.00;;;;;;4846426;29;20550;-49
2023/11/11 07:17:54;;;;;;;18.63;16.93;;;6.20;1.00;;;;;;4839991;29;20185;-53
2023/11/11 07:20:21;;;;;;;18.20;16.50;;;6.30;1.00;;;;;;4843412;29;20196;-51
2023/11/11 07:22:50;;;;;;;20.15;18.20;;;6.20;1.00;;;;;;4837821;29;20439;-51
2023/11/11 07:25:16;;;;;;;19.70;17.90;;;6.30;1.00;;;;;;4842390;29;20193;-50
2023/11/11 07:27:42;;;;;;;19.00;17.20;;;6.40;1.00;;;;;;4837168;29;20185;-39
2023/11/11 07:30:10;;;;;;;19.77;18.07;;;6.50;1.00;;;;;;4840926;29;20885;-53
2023/11/11 07:32:40;;;;;;;19.92;18.02;;;6.60;1.00;;;;;;4835997;29;20473;-40
2023/11/11 07:35:12;;;;;;;18.77;16.98;;;6.60;1.00;;;;;;4845302;29;20675;-40
2023/11/11 07:37:49;;;;;;;19.33;17.53;;;6.50;1.00;;;;;;4836799;29;20284;-40
2023/11/11 07:40:15;;;;;;;19.53;17.50;;;6.60;1.00;;;;;;4847853;29;20462;-40
2023/11/11 07:42:42;;;;;;;19.40;17.70;;;6.70;1.00;;;;;;4845350;29;20429;-40
2023/11/11 07:45:08;;;;;;;19.20;17.50;;;6.80;1.00;;;;;;4830968;29;20563;-40
2023/11/11 07:47:35;;;;;;;19.73;17.90;;;7.00;1.00;;;;;;4849786;29;20453;-40
2023/11/11 07:50:01;;;;;;;18.60;16.80;;;7.10;1.00;;;;;;4856585;29;20436;-40
2023/11/11 07:52:26;;;;;;;19.40;17.70;;;7.30;99.90;;;;;;4852888;29;20469;-40
2023/11/11 07:54:53;;;;;;;20.27;18.43;;;7.40;20.80;;;;;;4855583;29;20417;-40
2023/11/11 07:57:19;;;;;;;19.67;17.73;;;7.40;1.00;;;;;;4856458;29;20196;-41
2023/11/11 07:59:44;;;;;;;20.20;18.43;;;7.50;1.00;;;;;;4855925;29;20492;-40
2023/11/11 08:02:14;;;;;;;19.97;18.03;;;7.60;1.00;;;;;;4853489;29;20476;-41
2023/11/11 08:04:41;;;;;;;19.90;18.10;;;7.80;99.90;;;;;;4859686;29;20196;-40
2023/11/11 08:07:09;;;;;;;17.80;16.10;;;7.80;1.00;;;;;;4859285;29;20913;-40
2023/11/11 08:09:35;;;;;;;19.27;17.30;;;7.90;99.90;;;;;;4860668;29;20964;-40
2023/11/11 08:12:00;;;;;;;20.53;18.60;;;8.10;1.00;;;;;;4859875;29;20548;-41
2023/11/11 08:14:26;;;;;;;19.97;18.17;;;8.20;1.00;;;;;;4860622;29;20191;-39
2023/11/11 08:16:52;;;;;;;19.40;17.60;;;8.50;1.00;;;;;;4860628;29;20181;-40
2023/11/11 08:19:18;;;;;;;18.20;16.53;;;8.50;99.90;;;;;;4851413;29;20265;-44
2023/11/11 08:21:44;;;;;;;19.50;17.80;;;8.60;1.00;;;;;;4856424;29;20176;-44
2023/11/11 08:24:11;;;;;;;19.77;18.07;;;8.70;99.90;;;;;;4860602;29;21063;-39
2023/11/11 08:26:37;;;;;;;19.20;17.50;;;8.70;99.90;;;;;;4855884;29;20437;-39
2023/11/11 08:29:03;;;;;;;19.53;18.03;;;8.70;1.00;;;;;;4842340;29;20402;-39
2023/11/11 08:31:28;;;;;;;20.23;18.37;;;9.10;1.00;;;;;;4851311;29;20204;-39
2023/11/11 08:33:54;;;;;;;19.83;18.00;;;9.40;99.90;;;;;;4860549;29;20185;-40
2023/11/11 08:36:20;;;;;;;20.03;18.13;;;9.90;1.00;;;;;;4855246;29;20191;-40
2023/11/11 08:38:45;;;;;;;20.60;18.70;;;10.50;1.00;;;;;;4839300;29;20253;-40
2023/11/11 08:41:12;;;;;;;21.13;19.17;;;11.20;40.80;;;;;;4843275;29;20177;-40
2023/11/11 08:43:39;;;;;;;19.57;17.87;;;11.50;1.00;;;;;;4852540;29;20212;-40
2023/11/11 08:46:07;;;;;;;20.90;19.00;;;11.90;1.00;;;;;;4859146;29;20433;-41
2023/11/11 08:48:33;;;;;;;19.50;17.90;;;12.30;1.00;;;;;;4859967;29;20808;-40
2023/11/11 08:51:00;;;;;;;19.97;18.33;;;12.80;1.00;;;;;;4859507;29;20519;-40
2023/11/11 08:53:26;;;;;;;19.43;17.80;;;12.90;1.00;;;;;;4859968;29;20691;-40
2023/11/11 08:55:51;;;;;;;20.20;18.40;;;12.60;1.00;;;;;;4859855;29;20417;-42
2023/11/11 08:58:18;;;;;;;19.20;17.57;;;12.40;1.00;;;;;;4858113;29;20546;-40
2023/11/11 09:00:45;;;;;;;19.90;18.30;;;11.90;1.00;;;;;;4858935;29;20276;-43
2023/11/11 09:03:11;;;;;;;18.87;17.37;;;11.60;1.00;;;;;;4855220;29;21100;-41
2023/11/11 09:05:37;;;;;;;20.27;18.40;;;11.40;1.00;;;;;;4859652;29;20425;-41
2023/11/11 09:08:03;;;;;;;19.37;17.73;;;11.20;1.00;;;;;;4854099;29;20195;-42
2023/11/11 09:10:29;;;;;;;20.13;18.53;;;10.80;1.00;;;;;;4859474;29;20201;-41
2023/11/11 09:12:55;;;;;;;19.50;17.90;;;10.80;1.00;;;;;;4857386;29;20209;-40
2023/11/11 09:15:21;;;;;;;18.07;16.73;;;10.70;1.00;;;;;;4858973;29;20954;-39
2023/11/11 09:17:48;;;;;;;19.37;17.77;;;10.60;1.00;;;;;;4859613;29;20410;-39
2023/11/11 09:20:14;;;;;;;19.23;17.43;;;10.40;1.00;;;;;;4858458;29;20279;-41
2023/11/11 09:22:40;;;;;;;19.10;17.50;;;10.40;1.00;;;;;;4859429;29;20421;-39
2023/11/11 09:25:07;;;;;;;18.27;16.77;;;10.40;1.00;;;;;;4859126;29;20792;-39
2023/11/11 09:27:33;;;;;;;19.00;17.50;;;10.30;1.00;;;;;;4859277;29;20424;-40
2023/11/11 09:29:59;;;;;;;19.40;17.80;;;10.30;1.00;;;;;;4856634;29;20430;-40
2023/11/11 09:32:25;;;;;;;20.40;18.60;;;10.30;1.00;;;;;;4854545;29;20508;-39
2023/11/11 09:34:51;;;;;;;19.17;17.37;;;10.30;1.00;;;;;;4839670;29;20186;-40
2023/11/11 09:37:17;;;;;;;18.50;17.00;;;10.40;1.00;;;;;;4840554;29;20441;-40
2023/11/11 09:39:43;;;;;;;19.37;17.87;;;10.40;1.00;;;;;;4839352;29;20205;-41
2023/11/11 09:42:09;;;;;;;19.10;17.57;;;10.50;1.00;;;;;;4841480;29;20242;-40
2023/11/11 09:44:34;;;;;;;19.90;18.30;;;10.50;1.00;;;;;;4838291;29;20442;-40
2023/11/11 09:47:02;;;;;;;19.00;17.30;;;10.60;1.00;;;;;;4841604;29;20205;-40
2023/11/11 09:49:30;;;;;;;19.70;18.17;;;10.70;1.00;;;;;;4842047;29;20304;-40
2023/11/11 09:51:57;;;;;;;19.73;18.07;;;10.80;1.00;;;;;;4842944;29;20485;-41
2023/11/11 09:54:23;;;;;;;19.10;17.57;;;10.90;1.00;;;;;;4840410;29;20426;-41
2023/11/11 09:56:50;;;;;;;20.03;18.43;;;11.00;1.00;;;;;;4839360;29;21172;-41
2023/11/11 09:59:18;;;;;;;20.03;18.33;;;11.00;1.00;;;;;;4839084;29;20442;-41
2023/11/11 10:01:46;;;;;;;19.13;17.50;;;11.20;1.00;;;;;;4842645;29;20935;-43
2023/11/11 10:04:12;;;;;;;17.73;16.23;;;11.20;1.00;;;;;;4839172;29;20458;-40
2023/11/11 10:06:39;;;;;;;20.13;18.33;;;11.20;1.00;;;;;;4839924;29;20968;-41
2023/11/11 10:09:05;;;;;;;18.87;17.37;;;11.20;1.00;;;;;;4840476;29;20819;-41
2023/11/11 10:11:34;;;;;;;18.00;16.30;;;10.90;1.00;;;;;;4837792;29;20427;-39
2023/11/11 10:14:00;;;;;;;20.50;18.60;;;10.90;1.00;;;;;;4839815;29;20426;-40
2023/11/11 10:16:26;;;;;;;19.60;18.10;;;11.00;1.00;;;;;;4840032;29;20427;-40
2023/11/11 10:18:52;;;;;;;20.00;18.23;;;11.00;1.00;;;;;;4845303;29;20474;-39
2023/11/11 10:21:22;;;;;;;19.50;17.77;;;11.00;1.00;;;;;;4858148;29;20687;-40
2023/11/11 10:23:49;;;;;;;19.00;17.50;;;11.00;1.00;;;;;;4857408;29;20448;-40
2023/11/11 10:26:16;;;;;;;21.00;19.30;;;11.00;1.00;;;;;;4857782;29;20426;-40
2023/11/11 10:28:47;;;;;;;19.50;17.90;;;10.70;1.00;;;;;;4857257;29;20432;-39
2023/11/11 10:31:13;;;;;;;19.87;18.10;;;10.40;1.00;;;;;;4855937;29;20439;-39
2023/11/11 10:33:39;;;;;;;19.90;18.20;;;10.30;1.00;;;;;;4858140;29;21291;-40
2023/11/11 10:36:07;;;;;;;19.90;18.30;;;10.10;1.00;;;;;;4858446;29;20193;-40
2023/11/11 10:38:33;;;;;;;20.33;18.53;;;10.20;1.00;;;;;;4845581;29;20433;-40
2023/11/11 10:40:58;;;;;;;19.83;18.13;;;10.30;1.00;;;;;;4837631;29;20518;-40
2023/11/11 10:43:27;;;;;;;19.90;18.10;;;10.20;1.00;;;;;;4844421;29;20472;-41
2023/11/11 10:45:56;;;;;;;20.17;18.57;;;10.20;1.00;;;;;;4836879;29;20197;-40
2023/11/11 10:48:23;;;;;;;18.93;17.07;;;10.40;1.00;;;;;;4841542;29;20537;-40
2023/11/11 10:50:53;;;;;;;19.40;17.70;;;10.40;1.00;;;;;;4836332;29;20482;-41
2023/11/11 10:53:19;;;;;;;18.30;16.90;;;10.40;1.00;;;;;;4840962;29;20466;-40
2023/11/11 10:55:49;;;;;;;19.53;17.70;;;10.40;1.00;;;;;;4856109;29;20429;-41
2023/11/11 10:58:19;;;;;;;18.40;16.93;;;10.30;1.00;;;;;;4857006;29;20517;-40
2023/11/11 11:00:49;;;;;;;18.53;17.13;;;10.40;1.00;;;;;;4832602;29;20435;-41
2023/11/11 11:03:19;;;;;;;18.60;17.13;;;10.30;1.00;;;;;;4836613;29;20514;-40
2023/11/11 11:06:06;;;;;;;17.93;16.63;;;10.30;1.00;;;;;;4840212;29;20817;-42
2023/11/11 11:08:57;;;;;;;18.00;16.63;;;10.10;1.00;;;;;;4835032;29;20477;-40
2023/11/11 11:11:41;;;;;;;18.67;17.10;;;10.00;1.00;;;;;;4838825;29;20838;-39
2023/11/11 11:14:20;;;;;;;18.73;17.30;;;9.90;1.00;;;;;;4838279;29;20525;-40
2023/11/11 11:16:45;;;;;;;18.33;16.90;;;9.80;1.00;;;;;;4837364;29;20442;-40
2023/11/11 11:19:15;;;;;;;18.97;17.30;;;9.80;1.00;;;;;;4837937;29;20429;-40
2023/11/11 11:21:41;;;;;;;19.73;18.13;;;9.80;1.00;;;;;;4836135;29;20185;-40
2023/11/11 11:24:10;;;;;;;18.63;17.13;;;9.60;1.00;;;;;;4843182;29;20447;-39
2023/11/11 11:26:36;;;;;;;18.57;16.97;;;9.40;96.50;;;;;;4855473;29;20417;-40
2023/11/11 11:29:21;;;;;;;18.40;16.80;;;9.40;99.90;;;;;;4854660;29;20549;-40
2023/11/11 11:32:09;;;;;;;18.80;17.30;;;9.40;99.90;;;;;;4850397;29;20540;-39
2023/11/11 11:34:40;;;;;;;12.83;12.03;;;9.40;99.90;;;;;;4831835;29;20447;-39
2023/11/11 11:37:12;;;;;;;12.00;11.30;;;9.30;99.90;;;;;;4839010;29;20443;-40
2023/11/11 11:39:42;;;;;;;11.40;10.80;;;9.00;99.90;;;;;;4837102;29;20457;-40
2023/11/11 11:42:20;;;;;;;11.20;10.60;;;8.80;99.90;;;;;;4837045;29;20454;-40
2023/11/11 11:44:56;;;;;;;11.20;10.70;;;8.70;99.90;;;;;;4837225;29;20451;-40
2023/11/11 11:47:35;;;;;;;10.60;10.10;;;8.60;99.90;;;;;;4838112;29;20446;-41
2023/11/11 11:50:02;;;;;;;10.37;9.87;;;8.60;1.00;;;;;;4841070;29;21104;-41
2023/11/11 11:52:28;;;;;;;9.50;9.00;;;8.50;1.00;;;;;;4823205;29;21230;-40
2023/11/11 11:54:54;;;;;;;10.27;9.77;;;8.50;1.00;;;;;;4840269;29;21366;-40
2023/11/11 11:57:22;;;;;;;10.20;9.70;;;8.50;1.00;;;;;;4833885;29;20212;-39
2023/11/11 12:00:10;;;;;;;11.47;10.87;;;8.40;32.90;;;;;;4836101;29;20461;-39
2023/11/11 12:02:37;;;;;;;10.63;10.13;;;8.50;99.90;;;;;;4842644;29;20457;-38
2023/11/11 12:05:10;;;;;;;11.17;10.57;;;8.40;99.90;;;;;;4838575;29;21011;-38
2023/11/11 12:07:37;;;;;;;11.07;10.57;;;8.20;1.00;;;;;;4839533;29;20448;-39
2023/11/11 12:10:07;;;;;;;10.67;10.17;;;8.20;1.00;;;;;;4845357;29;20472;-38
2023/11/11 12:12:33;;;;;;;11.87;11.27;;;8.20;99.90;;;;;;4847333;29;20489;-40
2023/11/11 12:14:58;;;;;;;10.90;10.40;;;8.10;99.90;;;;;;4841778;29;20493;-39
2023/11/11 12:17:25;;;;;;;10.77;10.27;;;8.00;1.00;;;;;;4844870;29;20212;-38
2023/11/11 12:19:54;;;;;;;10.77;10.37;;;8.00;99.90;;;;;;4837028;29;20534;-39
2023/11/11 12:22:22;;;;;;;10.13;9.70;;;7.90;99.90;;;;;;4841954;29;20525;-39
2023/11/11 12:24:48;;;;;;;10.77;10.27;;;7.70;98.70;;;;;;4838099;29;20442;-40
2023/11/11 12:27:15;;;;;;;9.37;8.97;;;7.60;1.00;;;;;;4838828;29;20442;-40
2023/11/11 12:29:41;;;;;;;9.73;9.33;;;7.60;99.90;;;;;;4836597;29;20189;-39
2023/11/11 12:32:13;;;;;;;9.63;9.17;;;7.60;1.00;;;;;;4835047;29;20526;-40
2023/11/11 12:34:40;;;;;;;10.37;9.87;;;7.60;99.90;;;;;;4839368;29;20840;-39
2023/11/11 12:37:05;;;;;;;11.20;10.70;;;7.60;1.00;;;;;;4837043;29;20782;-40
2023/11/11 12:39:32;;;;;;;10.53;10.03;;;7.60;99.90;;;;;;4839957;29;20444;-41